Myanmar (MM) Flag Myanmar (MM)

97 ASN Networks

ASN Description IPv4 Prefixes IPv6 Prefixes IPv4 Peers IPv6 Peers Date Allocated
AS132100 Myanmar Speed Net Co.,Ltd 7 0 1 0 2016-08-01
AS133384 5BB Broadband 7 0 1 0 2014-02-19
AS134739 AGB Communication Co.Ltd 11 0 11 0 2015-10-20
AS135589 Internet Maekhong Network Company Limited 7 0 4 0 2018-09-04
AS136786 Information Beam Company Limited 4 2 2 4 2017-06-28
AS139051 AUNG GABAR COMPANY LIMITED 2 0 1 0 2019-05-09
AS139849 Royal Esprit Company Limited 1 1 1 1 2019-12-04
AS63852 Myanmar Net 5 0 1 0 2014-11-12
AS63998 Kinetic Myanmar Technology 5 0 3 0 2015-06-22
AS132686 Amara Communications 5 0 2 0 2016-08-31
AS134714 Elite Telecom Public Company Limited 4 0 3 0 2015-10-08
AS135111 Asia Mega Link 2 0 2 0 2018-03-07
AS136255 Telecom International Myanmar Co., Ltd 40 75 31 8 2017-02-08
AS136442 Ocean Wave Communication Co., Ltd 6 0 4 0 2017-03-16
AS136919 FACE24 Co.,Ltd 1 0 1 0 2017-08-17
AS136952 Spectrum Life Company Limited 1 0 1 0 2017-09-01
AS137826 AST SYSTEM TECHNOLOGY COMPANY LIMITED 2 0 3 0 2018-05-11
AS138634 MYNET SOLUTIONS COMPANY LIMITED 1 0 1 0 2019-02-21
AS138933 University of Computer Studies, Yangon 1 0 1 0 2019-03-25
AS139071 MK Networks Co., Ltd. 3 0 1 0 2019-05-16
AS139766 Protocol Technologies Co.,Ltd t/a KNET 2 0 2 0 2019-11-04
AS18399 Yatanarpon Teleport Company Limited 26 0 1 0 2002-11-04
AS131322 Yatanarpon Teleport Company Limited 24 1 6 1 2011-06-14
AS133524 Global Technology Co., Ltd. 13 0 10 0 2014-06-06
AS135300 Myanmar Broadband Telecom Co., Ltd 5 1 5 0 2016-04-02
AS135307 Golden TMH Telecom Co. Ltd 8 0 6 0 2016-04-05
AS135371 Fortune Broadband 9 2 5 0 2016-04-22
AS136474 Marga Global Telecom Limited 6 0 1 0 2017-03-31
AS136783 Spectrum Life Company Limited 3 0 2 0 2017-06-28
AS136975 Global Technology 4 1 4 1 2017-09-13
AS137431 ZORRO RITZ PUBLIC COMPANY LIMITED 1 1 1 1 2018-01-24
AS138158 Serge Pun & Associate (Myanmar) Ltd. 1 0 1 0 2018-08-24
AS138167 TrueNET 1 0 1 0 2018-08-29
AS138401 MM-VERUMLIB CO., LTD. 1 0 1 0 2018-11-02
AS139595 HTIN HTIN NETWORK COMPANY LIMITED 1 0 1 0 2019-08-15
AS139620 MYANMAR TELECOMMUNICATION NETWORK PUBLIC COMPANY LIMITED 3 0 1 0 2019-08-29
AS9654 Myanmar Internet Exchange - MMIX 3 2 3 1 2017-11-10
AS9988 Myanma Posts and Telecommunications 29 1 1 1 2000-04-26
AS45558 MYANMA POSTS AND TELECOMMUNICATIONS 2 0 53 5 2008-12-02
AS58952 Frontiir Co. Ltd 32 1 94 7 2013-07-02
AS132167 OOREDOO MYANMAR 35 0 16 0 2013-09-17
AS134105 Shwe Than Lwin Media Co.,Ltd. 1 0 1 0 2015-03-16
AS134736 NTT Communications (Thailand) Co., Ltd. (Yangon Branch) 7 0 4 0 2015-10-19
AS134976 Myint & Associates Telecommunications Ltd 10 0 2 0 2015-12-14
AS135433 KBZ Gateway Company Ltd 7 0 4 0 2016-05-18
AS136137 Terabit Wave Company Limited 1 0 1 0 2016-12-08
AS136177 Yoma Bank Limited 3 0 2 0 2017-01-11
AS136465 Dept. of Information Technology & Cyber Security 1 0 1 0 2017-03-28
AS136613 Ayeyarwady Bank 2 0 2 0 2017-05-31
AS136617 Fortune Telecom Company Limited 5 0 2 0 2017-06-01
AS137888 Bee Connect Myanmar Co., Ltd. 1 0 1 0 2018-06-01
AS138684 ManauLinks Co.,Ltd. 5 0 1 0 2019-03-08
AS139206 Pan Asia Majestic Eagle Ltd 1 0 1 0 2019-06-04
AS132037 HO'NGSA' TELECOM COMPANY LIMITED 4 0 2 0 2016-07-21
AS132148 HORIZON TELECOM INTERNATIONAL COMPANY LIMITED 5 1 2 1 2016-08-03
AS132344 SEANET 2 1 1 1 2016-08-17
AS133385 Telenor Myanmar 45 0 13 0 2014-02-24
AS133440 ST-net 2 0 1 0 2017-06-05
AS134603 Thoolei Co., Ltd. 1 0 1 0 2018-08-16
AS134840 Myanmar Country Co., Ltd. 8 0 1 0 2015-11-27
AS135149 Myanmar Technology Gateway Co., Ltd 1 0 1 0 2016-03-07
AS135405 WELINK 5 0 3 0 2016-05-06
AS135427 Myanmar Network Company Limited 3 0 1 0 2016-05-17
AS135529 FPT MYANMAR COMPANY LIMITED 8 0 1 0 2016-06-03
AS136168 Campana MYTHIC Co. Ltd. 4 1 31 1 2017-01-04
AS136210 IT Spectrum Company Limited 3 0 3 0 2017-01-18
AS136480 Myanmar Unilink Communication Company Limited 21 0 5 0 2017-04-04
AS136780 MYANMAR INFORMATION HIGHWAY LIMITED 8 0 3 0 2017-06-26
AS137861 Myanmar World Distribution Telecommunication Company Limited 1 0 1 0 2018-05-22
AS137878 GOLDENET 4 0 2 0 2018-05-28
AS137891 Be The First 3 0 2 0 2018-06-05
AS137893 NEXGENET COMPANY LIMITED 5 0 2 0 2018-06-06
AS138168 MyanmarAPN Company Limited 3 0 3 0 2018-08-29
AS139711 KANBAWZA BANK LIMITED 3 0 2 0 2019-10-09
AS139719 Yar Chang Company Limited 3 0 1 0 2019-10-10
AS139871 Y Net Public Co. Ltd. 1 0 2 0 2019-12-10